Time;durP1;ratioP1;P1;durP2;ratioP2;P2;SDS_P1;SDS_P2;PMS_P1;PMS_P2;Temp;Humidity;BMP_temperature;BMP_pressure;BME280_temperature;BME280_humidity;BME280_pressure;Samples;Min_cycle;Max_cycle;Signal;HPM_P1;HPM_P2
2023/07/03 00:00:20;;;;;;;10.25;2.28;;;;;23.10;100790.00;;;;5007500;28;21104;-82
2023/07/03 00:02:52;;;;;;;4.85;1.92;;;;;23.20;100789.00;;;;5006951;28;20292;-82
2023/07/03 00:05:20;;;;;;;6.45;2.22;;;;;23.10;100790.00;;;;5006738;28;20693;-81
2023/07/03 00:07:47;;;;;;;6.72;1.95;;;;;23.10;100782.00;;;;5004764;28;20320;-81
2023/07/03 00:10:15;;;;;;;3.95;1.90;;;;;23.10;100777.00;;;;5006333;28;20730;-81
2023/07/03 00:12:44;;;;;;;6.50;1.83;;;;;23.10;100775.00;;;;5004662;28;20263;-81
2023/07/03 00:15:12;;;;;;;5.35;1.83;;;;;23.10;100769.00;;;;5006501;28;20667;-81
2023/07/03 00:17:39;;;;;;;10.25;2.40;;;;;23.10;100770.00;;;;5009463;28;20208;-81
2023/07/03 00:20:10;;;;;;;11.10;2.50;;;;;23.10;100769.00;;;;5003761;28;20204;-81
2023/07/03 00:22:37;;;;;;;5.93;2.20;;;;;23.00;100766.00;;;;5005545;28;20210;-81
2023/07/03 00:25:05;;;;;;;6.60;2.08;;;;;23.00;100775.00;;;;5007557;28;20224;-82
2023/07/03 00:27:32;;;;;;;6.32;1.67;;;;;23.00;100770.00;;;;5007875;28;20221;-82
2023/07/03 00:30:01;;;;;;;6.57;1.80;;;;;23.00;100775.00;;;;5004736;28;20202;-82
2023/07/03 00:32:28;;;;;;;13.38;2.45;;;;;23.00;100767.00;;;;5010608;28;20662;-82
2023/07/03 00:34:56;;;;;;;4.95;1.80;;;;;23.00;100764.00;;;;5006602;28;20201;-81
2023/07/03 00:37:23;;;;;;;9.90;2.42;;;;;23.00;100769.00;;;;5001019;28;20193;-81
2023/07/03 00:39:51;;;;;;;8.48;2.10;;;;;22.90;100771.00;;;;5007720;28;20667;-82
2023/07/03 00:42:18;;;;;;;8.93;2.08;;;;;22.90;100765.00;;;;5003998;28;20205;-82
2023/07/03 00:44:45;;;;;;;9.90;2.15;;;;;22.90;100770.00;;;;5007518;28;20711;-82
2023/07/03 00:47:15;;;;;;;4.75;1.80;;;;;22.90;100764.00;;;;5005166;28;20197;-82
2023/07/03 00:49:42;;;;;;;6.63;2.20;;;;;22.90;100770.00;;;;5006819;28;20200;-81
2023/07/03 00:52:11;;;;;;;6.88;1.83;;;;;22.80;100772.00;;;;5007876;28;20189;-80
2023/07/03 00:54:39;;;;;;;9.80;2.92;;;;;22.80;100771.00;;;;5007887;28;20547;-82
2023/07/03 00:57:07;;;;;;;7.38;1.98;;;;;22.80;100776.00;;;;5004416;28;20208;-81
2023/07/03 00:59:35;;;;;;;6.22;2.35;;;;;22.80;100772.00;;;;5004646;28;20205;-81
2023/07/03 01:02:09;;;;;;;9.20;2.83;;;;;22.70;100767.00;;;;5007171;28;20201;-82
2023/07/03 01:04:45;;;;;;;7.88;2.55;;;;;22.70;100765.00;;;;5002823;28;20232;-81
2023/07/03 01:07:16;;;;;;;6.30;1.80;;;;;22.70;100767.00;;;;5008084;28;20189;-83
2023/07/03 01:09:47;;;;;;;8.15;2.55;;;;;22.70;100768.00;;;;5006123;28;20655;-82
2023/07/03 01:12:15;;;;;;;10.38;2.38;;;;;22.70;100770.00;;;;5007533;28;20982;-82
2023/07/03 01:14:44;;;;;;;7.43;1.75;;;;;22.70;100764.00;;;;5008178;28;20212;-81
2023/07/03 01:17:14;;;;;;;5.88;1.77;;;;;22.70;100769.00;;;;5008967;28;20670;-81
2023/07/03 01:19:46;;;;;;;8.65;2.38;;;;;22.60;100760.00;;;;5006323;28;20197;-81
2023/07/03 01:22:20;;;;;;;7.53;2.47;;;;;22.60;100761.00;;;;5006779;28;20194;-81
2023/07/03 01:24:53;;;;;;;7.10;2.00;;;;;22.60;100763.00;;;;5008086;28;20227;-83
2023/07/03 01:27:23;;;;;;;9.63;2.00;;;;;22.60;100756.00;;;;5008441;28;20208;-80
2023/07/03 01:29:53;;;;;;;9.68;2.90;;;;;22.60;100764.00;;;;5000530;28;20201;-81
2023/07/03 01:32:24;;;;;;;9.77;1.73;;;;;22.50;100760.00;;;;5010156;28;20201;-81
2023/07/03 01:34:54;;;;;;;7.85;2.45;;;;;22.50;100760.00;;;;5004749;28;20675;-81
2023/07/03 01:37:25;;;;;;;8.27;2.17;;;;;22.50;100753.00;;;;5007863;28;20193;-82
2023/07/03 01:39:56;;;;;;;9.43;2.55;;;;;22.50;100747.00;;;;5003230;28;20211;-81
2023/07/03 01:42:25;;;;;;;7.88;2.20;;;;;22.50;100744.00;;;;5006502;28;20192;-83
2023/07/03 01:44:53;;;;;;;8.57;2.58;;;;;22.50;100757.00;;;;5001635;28;20227;-81
2023/07/03 01:47:21;;;;;;;14.85;3.78;;;;;22.50;100749.00;;;;5006334;28;20563;-82
2023/07/03 01:49:48;;;;;;;9.65;2.47;;;;;22.50;100742.00;;;;5005895;28;20205;-81
2023/07/03 01:52:19;;;;;;;10.73;2.97;;;;;22.50;100740.00;;;;5004112;28;20201;-82
2023/07/03 01:54:55;;;;;;;6.55;2.00;;;;;22.40;100746.00;;;;5005964;28;20200;-81
2023/07/03 01:57:30;;;;;;;6.35;1.98;;;;;22.40;100740.00;;;;5008838;28;20549;-82
2023/07/03 01:59:59;;;;;;;9.30;2.88;;;;;22.50;100746.00;;;;5005612;28;20197;-80
2023/07/03 02:02:30;;;;;;;6.18;2.00;;;;;22.40;100738.00;;;;5006089;28;20815;-82
2023/07/03 02:05:05;;;;;;;7.32;2.00;;;;;22.40;100743.00;;;;5000576;28;20714;-81
2023/07/03 02:07:34;;;;;;;9.18;2.13;;;;;22.40;100741.00;;;;5004481;28;20250;-81
2023/07/03 02:10:03;;;;;;;13.00;3.08;;;;;22.40;100740.00;;;;4998106;28;20208;-81
2023/07/03 02:12:32;;;;;;;12.77;2.67;;;;;22.40;100739.00;;;;4997440;28;20193;-80
2023/07/03 02:15:03;;;;;;;6.00;2.22;;;;;22.40;100735.00;;;;4999839;28;20197;-81
2023/07/03 02:17:31;;;;;;;5.80;2.28;;;;;22.40;100735.00;;;;5008079;28;20259;-81
2023/07/03 02:19:59;;;;;;;10.52;2.63;;;;;22.40;100734.00;;;;5006019;28;20197;-81
2023/07/03 02:22:26;;;;;;;8.57;2.40;;;;;22.40;100734.00;;;;5003095;28;20193;-81
2023/07/03 02:24:53;;;;;;;9.48;2.42;;;;;22.40;100740.00;;;;5007850;28;20225;-82
2023/07/03 02:27:21;;;;;;;11.55;2.67;;;;;22.40;100733.00;;;;5006986;28;20200;-82
2023/07/03 02:29:49;;;;;;;6.13;2.20;;;;;22.40;100734.00;;;;5005552;28;20204;-82
2023/07/03 02:32:17;;;;;;;9.77;2.22;;;;;22.40;100727.00;;;;4998340;28;20200;-81
2023/07/03 02:34:45;;;;;;;7.95;2.28;;;;;22.40;100727.00;;;;5005689;28;20667;-81
2023/07/03 02:37:13;;;;;;;7.60;2.30;;;;;22.40;100735.00;;;;5005202;28;20197;-82
2023/07/03 02:39:41;;;;;;;15.25;2.58;;;;;22.40;100729.00;;;;5006918;28;20665;-81
2023/07/03 02:42:08;;;;;;;8.07;2.72;;;;;22.40;100728.00;;;;5004046;28;20209;-81
2023/07/03 02:44:36;;;;;;;7.32;2.47;;;;;22.40;100731.00;;;;5005607;28;20233;-82
2023/07/03 02:47:05;;;;;;;14.85;2.90;;;;;22.30;100725.00;;;;5003161;28;20193;-81
2023/07/03 02:49:32;;;;;;;8.50;2.15;;;;;22.40;100721.00;;;;5006794;28;20201;-82
2023/07/03 02:51:59;;;;;;;10.45;2.30;;;;;22.40;100721.00;;;;5004991;28;20230;-82
2023/07/03 02:54:27;;;;;;;14.20;3.25;;;;;22.40;100728.00;;;;5005003;28;20208;-81
2023/07/03 02:56:54;;;;;;;9.73;2.88;;;;;22.40;100722.00;;;;5006100;28;20205;-80
2023/07/03 02:59:22;;;;;;;6.28;1.92;;;;;22.40;100728.00;;;;4999530;28;20202;-81
2023/07/03 03:01:50;;;;;;;8.60;3.08;;;;;22.40;100719.00;;;;4996910;28;20201;-80
2023/07/03 03:04:19;;;;;;;8.77;2.67;;;;;22.30;100727.00;;;;5004403;28;20820;-80
2023/07/03 03:06:46;;;;;;;7.88;2.17;;;;;22.30;100721.00;;;;5003387;28;20201;-82
2023/07/03 03:09:13;;;;;;;9.55;2.50;;;;;22.30;100722.00;;;;5002788;28;20237;-81
2023/07/03 03:11:41;;;;;;;10.02;3.00;;;;;22.30;100727.00;;;;5000513;28;20221;-82
2023/07/03 03:14:08;;;;;;;10.02;2.60;;;;;22.40;100725.00;;;;5006175;28;20193;-81
2023/07/03 03:16:35;;;;;;;13.85;3.35;;;;;22.30;100721.00;;;;5003536;28;20210;-82
2023/07/03 03:19:03;;;;;;;8.05;2.30;;;;;22.30;100724.00;;;;5000182;28;20196;-81
2023/07/03 03:21:32;;;;;;;10.93;2.28;;;;;22.30;100713.00;;;;5001668;28;20768;-81
2023/07/03 03:23:59;;;;;;;9.98;2.08;;;;;22.30;100723.00;;;;5006015;28;21071;-81
2023/07/03 03:26:26;;;;;;;10.65;3.10;;;;;22.30;100725.00;;;;5005648;28;20204;-80
2023/07/03 03:28:54;;;;;;;8.82;2.78;;;;;22.30;100720.00;;;;5002842;28;20287;-82
2023/07/03 03:31:21;;;;;;;11.68;3.47;;;;;22.30;100733.00;;;;5003527;28;20693;-80
2023/07/03 03:33:48;;;;;;;10.10;2.83;;;;;22.30;100726.00;;;;5004186;28;20204;-83
2023/07/03 03:36:16;;;;;;;12.50;2.35;;;;;22.30;100716.00;;;;4997915;28;20208;-81
2023/07/03 03:38:44;;;;;;;11.10;2.78;;;;;22.30;100719.00;;;;5006622;28;20209;-81
2023/07/03 03:41:12;;;;;;;9.57;2.92;;;;;22.30;100722.00;;;;5003710;28;20208;-81
2023/07/03 03:43:39;;;;;;;9.77;3.08;;;;;22.30;100720.00;;;;5003200;28;20205;-81
2023/07/03 03:46:06;;;;;;;7.90;2.65;;;;;22.30;100714.00;;;;5001309;28;20244;-81
2023/07/03 03:48:35;;;;;;;12.25;3.03;;;;;22.30;100715.00;;;;5002609;28;20209;-81
2023/07/03 03:51:02;;;;;;;13.10;3.05;;;;;22.30;100714.00;;;;5002286;28;20564;-81
2023/07/03 03:53:30;;;;;;;11.57;2.95;;;;;22.30;100717.00;;;;5002913;28;20247;-81
2023/07/03 03:55:59;;;;;;;13.75;2.97;;;;;22.30;100719.00;;;;5006841;28;20205;-82
2023/07/03 03:58:26;;;;;;;8.63;2.67;;;;;22.30;100725.00;;;;4998868;28;20578;-81
2023/07/03 04:00:54;;;;;;;16.05;3.50;;;;;22.30;100724.00;;;;5002690;28;20197;-81
2023/07/03 04:03:22;;;;;;;9.32;3.25;;;;;22.30;100736.00;;;;4998080;28;20201;-81
2023/07/03 04:05:49;;;;;;;9.43;2.60;;;;;22.30;100729.00;;;;5006543;28;20221;-81
2023/07/03 04:08:16;;;;;;;9.00;2.58;;;;;22.30;100732.00;;;;5006145;28;20233;-82
2023/07/03 04:10:44;;;;;;;16.40;3.10;;;;;22.30;100727.00;;;;4989362;28;20221;-81
2023/07/03 04:13:13;;;;;;;11.68;2.90;;;;;22.30;100737.00;;;;5003397;28;20208;-82
2023/07/03 04:15:58;;;;;;;5.05;2.28;;;;;22.20;100735.00;;;;5000889;28;20201;-82
2023/07/03 04:18:26;;;;;;;13.43;2.63;;;;;22.30;100728.00;;;;4997944;28;20854;-82
2023/07/03 04:20:53;;;;;;;10.35;2.55;;;;;22.30;100742.00;;;;4999141;28;20209;-82
2023/07/03 04:23:21;;;;;;;10.18;2.50;;;;;22.30;100742.00;;;;5005379;28;20204;-81
2023/07/03 04:25:49;;;;;;;9.23;2.63;;;;;22.30;100746.00;;;;4999058;28;20263;-81
2023/07/03 04:28:20;;;;;;;8.75;2.30;;;;;22.30;100741.00;;;;4999802;28;20205;-81
2023/07/03 04:30:48;;;;;;;7.68;2.72;;;;;22.30;100748.00;;;;5004421;28;20197;-82
2023/07/03 04:33:16;;;;;;;8.07;2.67;;;;;22.30;100744.00;;;;5002041;28;20201;-81
2023/07/03 04:35:43;;;;;;;10.15;2.22;;;;;22.40;100748.00;;;;5001459;28;20200;-81
2023/07/03 04:38:11;;;;;;;13.57;2.97;;;;;22.40;100751.00;;;;5004289;28;20945;-80
2023/07/03 04:40:38;;;;;;;7.00;2.17;;;;;22.30;100751.00;;;;5005523;28;20240;-82
2023/07/03 04:43:08;;;;;;;6.07;1.77;;;;;22.40;100747.00;;;;5003608;28;20197;-82
2023/07/03 04:45:40;;;;;;;6.28;2.60;;;;;22.30;100752.00;;;;5002207;28;20294;-82
2023/07/03 04:48:08;;;;;;;7.57;2.97;;;;;22.40;100760.00;;;;5005509;28;20269;-81
2023/07/03 04:50:35;;;;;;;6.60;2.05;;;;;22.40;100753.00;;;;5004362;28;20256;-82
2023/07/03 04:53:04;;;;;;;8.77;2.40;;;;;22.40;100763.00;;;;5003176;28;20285;-81
2023/07/03 04:55:32;;;;;;;7.78;2.28;;;;;22.40;100757.00;;;;4998198;28;20259;-81
2023/07/03 04:58:00;;;;;;;9.10;2.55;;;;;22.40;100753.00;;;;5002384;28;20558;-82
2023/07/03 05:00:28;;;;;;;7.45;2.53;;;;;22.40;100758.00;;;;4999620;28;20209;-81
2023/07/03 05:02:59;;;;;;;8.77;2.70;;;;;22.40;100760.00;;;;4999979;28;20217;-81
2023/07/03 05:05:27;;;;;;;9.68;3.28;;;;;22.40;100760.00;;;;5003035;28;20220;-81
2023/07/03 05:07:54;;;;;;;6.60;1.73;;;;;22.40;100765.00;;;;5000587;28;20251;-82
2023/07/03 05:10:23;;;;;;;10.10;2.58;;;;;22.40;100767.00;;;;4991650;28;20609;-81
2023/07/03 05:12:51;;;;;;;7.50;2.17;;;;;22.40;100776.00;;;;5001292;28;20221;-82
2023/07/03 05:15:20;;;;;;;8.07;2.25;;;;;22.40;100774.00;;;;5008479;28;20203;-82
2023/07/03 05:17:50;;;;;;;6.30;2.08;;;;;22.40;100774.00;;;;5008726;28;20193;-79
2023/07/03 05:20:22;;;;;;;10.73;1.95;;;;;22.50;100773.00;;;;5007678;28;20280;-81
2023/07/03 05:22:49;;;;;;;9.77;2.35;;;;;22.50;100771.00;;;;5003744;28;20926;-80
2023/07/03 05:25:18;;;;;;;6.07;1.83;;;;;22.50;100770.00;;;;5005117;28;20231;-79
2023/07/03 05:27:46;;;;;;;6.05;1.98;;;;;22.50;100775.00;;;;5005859;28;20216;-81
2023/07/03 05:30:14;;;;;;;8.57;1.83;;;;;22.50;100781.00;;;;5001141;28;20189;-82
2023/07/03 05:32:42;;;;;;;4.00;1.55;;;;;22.50;100776.00;;;;5007764;28;20204;-82
2023/07/03 05:35:10;;;;;;;4.45;1.50;;;;;22.60;100777.00;;;;5005450;28;20197;-80
2023/07/03 05:37:39;;;;;;;8.45;1.77;;;;;22.60;100784.00;;;;5007494;28;20204;-80
2023/07/03 05:40:11;;;;;;;4.07;1.35;;;;;22.60;100784.00;;;;5007917;28;20208;-80
2023/07/03 05:42:38;;;;;;;2.33;1.05;;;;;22.60;100778.00;;;;5008499;28;20212;-80
2023/07/03 05:45:07;;;;;;;2.83;1.17;;;;;22.60;100781.00;;;;5005410;28;20231;-81
2023/07/03 05:47:35;;;;;;;2.80;1.00;;;;;22.60;100795.00;;;;5007081;28;20205;-79
2023/07/03 05:50:02;;;;;;;8.88;0.90;;;;;22.60;100782.00;;;;5005710;28;20240;-78
2023/07/03 05:52:30;;;;;;;6.55;1.48;;;;;22.60;100780.00;;;;5001813;28;20768;-79
2023/07/03 05:54:59;;;;;;;4.10;1.50;;;;;22.60;100785.00;;;;5001333;28;20200;-79
2023/07/03 05:57:26;;;;;;;5.38;1.50;;;;;22.70;100791.00;;;;4995143;28;20252;-81
2023/07/03 05:59:54;;;;;;;4.00;0.82;;;;;22.70;100790.00;;;;5002217;28;20208;-79
2023/07/03 06:02:21;;;;;;;4.82;1.23;;;;;22.70;100789.00;;;;5001084;28;20233;-80
2023/07/03 06:04:49;;;;;;;4.70;1.08;;;;;22.70;100796.00;;;;5000135;28;20220;-79
2023/07/03 06:07:16;;;;;;;4.28;0.73;;;;;22.80;100795.00;;;;5008778;28;20216;-78
2023/07/03 06:09:46;;;;;;;1.73;0.88;;;;;22.80;100799.00;;;;5000433;28;20205;-77
2023/07/03 06:12:14;;;;;;;3.08;0.98;;;;;22.80;100798.00;;;;5004384;28;20192;-79
2023/07/03 06:14:42;;;;;;;3.78;0.93;;;;;22.80;100797.00;;;;5004296;28;20205;-79
2023/07/03 06:17:09;;;;;;;5.97;1.13;;;;;22.80;100797.00;;;;5006163;28;20207;-79
2023/07/03 06:19:36;;;;;;;2.50;0.82;;;;;22.80;100795.00;;;;5008002;28;20200;-78
2023/07/03 06:22:04;;;;;;;5.13;1.05;;;;;22.80;100797.00;;;;5007398;28;20213;-79
2023/07/03 06:24:32;;;;;;;3.00;0.88;;;;;22.80;100800.00;;;;5004447;28;20591;-79
2023/07/03 06:27:00;;;;;;;3.28;0.90;;;;;22.90;100799.00;;;;5008636;28;20288;-78
2023/07/03 06:29:28;;;;;;;4.40;1.63;;;;;22.90;100806.00;;;;5006688;28;20201;-79
2023/07/03 06:31:56;;;;;;;2.65;0.73;;;;;22.90;100806.00;;;;5007898;28;20197;-79
2023/07/03 06:34:23;;;;;;;4.60;1.25;;;;;23.00;100797.00;;;;5001094;28;20202;-79
2023/07/03 06:36:50;;;;;;;1.67;0.80;;;;;23.00;100797.00;;;;5004088;28;20194;-79
2023/07/03 06:39:18;;;;;;;2.60;1.75;;;;;23.00;100799.00;;;;5004313;28;20577;-79
2023/07/03 06:41:45;;;;;;;2.85;1.13;;;;;23.10;100797.00;;;;5001005;28;20232;-80
2023/07/03 06:44:15;;;;;;;5.45;1.55;;;;;23.10;100797.00;;;;5006089;28;20201;-80
2023/07/03 06:46:44;;;;;;;5.18;1.45;;;;;23.10;100802.00;;;;5005537;28;20249;-81
2023/07/03 06:49:11;;;;;;;4.68;1.60;;;;;23.20;100797.00;;;;5006027;28;20663;-80
2023/07/03 06:51:40;;;;;;;5.53;1.42;;;;;23.20;100805.00;;;;5006251;28;20204;-79
2023/07/03 06:54:07;;;;;;;3.20;1.30;;;;;23.20;100804.00;;;;5004865;28;20197;-80
2023/07/03 06:56:35;;;;;;;5.25;1.65;;;;;23.30;100807.00;;;;5004639;28;20556;-80
2023/07/03 06:59:02;;;;;;;2.67;1.02;;;;;23.30;100802.00;;;;5000773;28;20566;-80
2023/07/03 07:01:29;;;;;;;3.40;1.25;;;;;23.30;100807.00;;;;5004354;28;20208;-80
2023/07/03 07:03:58;;;;;;;6.53;1.25;;;;;23.30;100805.00;;;;5004885;28;20208;-81
2023/07/03 07:06:27;;;;;;;2.42;1.10;;;;;23.40;100799.00;;;;5003072;28;20251;-81
2023/07/03 07:08:54;;;;;;;2.30;1.00;;;;;23.40;100810.00;;;;5003438;28;20670;-79
2023/07/03 07:11:24;;;;;;;4.22;1.23;;;;;23.40;100812.00;;;;5001961;28;20217;-81
2023/07/03 07:13:52;;;;;;;6.93;1.65;;;;;23.50;100814.00;;;;5002201;28;20204;-79
2023/07/03 07:16:22;;;;;;;6.50;1.42;;;;;23.50;100806.00;;;;5002427;28;20205;-80
2023/07/03 07:18:54;;;;;;;4.68;1.30;;;;;23.50;100822.00;;;;5003948;28;20193;-79
2023/07/03 07:21:23;;;;;;;4.20;1.33;;;;;23.50;100827.00;;;;5004666;28;20204;-81
2023/07/03 07:23:53;;;;;;;3.35;0.82;;;;;23.50;100822.00;;;;5006485;28;20216;-82
2023/07/03 07:26:22;;;;;;;8.52;1.25;;;;;23.60;100825.00;;;;4998239;28;20229;-80
2023/07/03 07:28:49;;;;;;;1.70;0.80;;;;;23.60;100831.00;;;;5007999;28;20204;-81
2023/07/03 07:31:20;;;;;;;3.67;0.98;;;;;23.60;100825.00;;;;5003882;28;20207;-83
2023/07/03 07:33:47;;;;;;;3.67;0.68;;;;;23.60;100810.00;;;;5003943;28;20213;-80
2023/07/03 07:36:16;;;;;;;4.10;1.23;;;;;23.60;100813.00;;;;5004188;28;20961;-81
2023/07/03 07:38:44;;;;;;;6.63;1.27;;;;;23.60;100816.00;;;;5004773;28;20214;-83
2023/07/03 07:41:12;;;;;;;2.28;1.00;;;;;23.70;100822.00;;;;5002672;28;20694;-81
2023/07/03 07:43:40;;;;;;;3.38;1.20;;;;;23.70;100823.00;;;;5002982;28;20205;-81
2023/07/03 07:46:07;;;;;;;3.03;0.70;;;;;23.70;100833.00;;;;5002671;28;20703;-81
2023/07/03 07:48:35;;;;;;;4.72;0.90;;;;;23.70;100823.00;;;;5003955;28;20205;-82
2023/07/03 07:51:07;;;;;;;4.88;0.90;;;;;23.70;100826.00;;;;5003136;28;20201;-83
2023/07/03 07:53:35;;;;;;;2.08;0.75;;;;;23.70;100837.00;;;;5003265;28;20208;-82
2023/07/03 07:56:04;;;;;;;2.25;0.95;;;;;23.80;100830.00;;;;5004438;28;20227;-83
2023/07/03 07:58:32;;;;;;;1.95;0.70;;;;;23.80;100838.00;;;;4995832;28;20201;-83
2023/07/03 08:00:59;;;;;;;3.67;0.80;;;;;23.90;100834.00;;;;5001450;28;20193;-83
2023/07/03 08:03:27;;;;;;;3.17;0.88;;;;;23.90;100834.00;;;;5002314;28;20201;-83
2023/07/03 08:05:58;;;;;;;4.15;0.95;;;;;24.00;100828.00;;;;5002927;28;20687;-81
2023/07/03 08:08:26;;;;;;;3.17;1.15;;;;;24.00;100827.00;;;;5005926;28;20228;-83
2023/07/03 08:10:53;;;;;;;3.33;1.02;;;;;24.00;100830.00;;;;5007006;28;20563;-83
2023/07/03 08:13:22;;;;;;;4.93;0.70;;;;;24.10;100820.00;;;;5007791;28;20197;-84
2023/07/03 08:15:51;;;;;;;9.32;1.20;;;;;24.10;100821.00;;;;5004728;28;20201;-83
2023/07/03 08:18:19;;;;;;;4.30;0.95;;;;;24.00;100837.00;;;;5006019;28;20201;-86
2023/07/03 08:20:46;;;;;;;2.88;1.05;;;;;24.00;100835.00;;;;5009364;28;20573;-82
2023/07/03 08:23:14;;;;;;;5.65;1.15;;;;;24.00;100845.00;;;;5010342;28;20204;-84
2023/07/03 08:25:42;;;;;;;2.35;0.93;;;;;24.00;100849.00;;;;5007439;28;20201;-84
2023/07/03 08:28:10;;;;;;;3.22;1.25;;;;;24.00;100845.00;;;;5008236;28;20201;-81
2023/07/03 08:30:40;;;;;;;3.20;1.17;;;;;23.90;100843.00;;;;5007851;28;20572;-83
2023/07/03 08:33:07;;;;;;;3.88;1.10;;;;;23.90;100855.00;;;;5007715;28;20201;-83
2023/07/03 08:35:34;;;;;;;2.67;1.13;;;;;23.90;100849.00;;;;5005038;28;20208;-84
2023/07/03 08:38:02;;;;;;;3.60;1.02;;;;;23.90;100845.00;;;;5009681;28;20204;-84
2023/07/03 08:40:30;;;;;;;2.97;1.05;;;;;23.90;100844.00;;;;5010462;28;20240;-84
2023/07/03 08:43:01;;;;;;;8.27;1.40;;;;;23.90;100837.00;;;;5009359;28;21001;-83
2023/07/03 08:45:36;;;;;;;4.32;1.02;;;;;24.00;100835.00;;;;5006163;28;20189;-83
2023/07/03 08:48:08;;;;;;;5.57;0.90;;;;;24.10;100846.00;;;;5010131;28;20228;-86
2023/07/03 08:50:36;;;;;;;3.88;1.65;;;;;24.20;100838.00;;;;5002071;28;20202;-84
2023/07/03 08:53:06;;;;;;;5.03;1.30;;;;;24.30;100836.00;;;;5008683;28;20204;-85
2023/07/03 08:55:38;;;;;;;3.45;1.48;;;;;24.30;100845.00;;;;5009464;28;20208;-85
2023/07/03 08:58:05;;;;;;;3.42;1.30;;;;;24.40;100843.00;;;;5011163;28;20201;-85
2023/07/03 09:00:44;;;;;;;5.70;1.42;;;;;24.30;100846.00;;;;5008002;28;20283;-83
2023/07/03 09:03:21;;;;;;;6.68;1.65;;;;;24.30;100851.00;;;;5008011;28;20197;-84
2023/07/03 09:06:03;;;;;;;5.32;1.20;;;;;24.30;100855.00;;;;5009486;28;20286;-85
2023/07/03 09:08:37;;;;;;;2.90;0.88;;;;;24.30;100862.00;;;;5003774;28;20246;-86
2023/07/03 09:11:05;;;;;;;6.72;1.42;;;;;24.40;100859.00;;;;5008638;28;20216;-84
2023/07/03 09:13:36;;;;;;;5.22;1.90;;;;;24.30;100855.00;;;;5012491;28;20205;-84
2023/07/03 09:16:09;;;;;;;5.50;1.90;;;;;24.30;100858.00;;;;5009481;28;20205;-85
2023/07/03 09:18:44;;;;;;;5.63;1.80;;;;;24.40;100844.00;;;;5008125;28;20409;-82
2023/07/03 09:21:11;;;;;;;7.35;2.38;;;;;24.50;100852.00;;;;5006870;28;20188;-83
2023/07/03 09:23:43;;;;;;;6.53;2.08;;;;;24.60;100836.00;;;;5009999;28;20537;-85
2023/07/03 09:26:17;;;;;;;9.40;1.92;;;;;24.80;100844.00;;;;5005867;28;20205;-83
2023/07/03 09:28:45;;;;;;;7.63;1.67;;;;;24.90;100848.00;;;;5007782;28;20574;-82
2023/07/03 09:31:12;;;;;;;6.65;1.70;;;;;24.90;100853.00;;;;5008303;28;20212;-83
2023/07/03 09:33:42;;;;;;;4.85;1.60;;;;;24.90;100854.00;;;;5006191;28;20219;-83
2023/07/03 09:36:24;;;;;;;3.60;1.70;;;;;24.80;100860.00;;;;5005073;28;20197;-83
2023/07/03 09:38:51;;;;;;;4.45;1.77;;;;;24.90;100863.00;;;;5007997;28;20197;-83
2023/07/03 09:41:26;;;;;;;8.75;2.20;;;;;24.80;100872.00;;;;5002354;28;20196;-84
2023/07/03 09:43:53;;;;;;;9.75;1.80;;;;;24.80;100869.00;;;;5007706;28;20540;-84
2023/07/03 09:46:21;;;;;;;5.82;1.73;;;;;24.80;100864.00;;;;5003043;28;20217;-82
2023/07/03 09:48:50;;;;;;;5.78;1.80;;;;;24.80;100858.00;;;;5008298;28;20213;-85
2023/07/03 09:51:26;;;;;;;3.47;1.27;;;;;24.70;100869.00;;;;5008917;28;20197;-83
2023/07/03 09:53:56;;;;;;;8.45;1.90;;;;;24.80;100866.00;;;;5006887;28;20200;-81
2023/07/03 09:56:27;;;;;;;4.57;1.73;;;;;24.70;100874.00;;;;5008092;28;20227;-83
2023/07/03 09:58:59;;;;;;;10.52;2.08;;;;;24.60;100867.00;;;;5001980;28;20208;-82
2023/07/03 10:01:29;;;;;;;3.83;1.33;;;;;24.50;100878.00;;;;5003679;28;20567;-81
2023/07/03 10:04:05;;;;;;;4.20;1.48;;;;;24.40;100884.00;;;;5004644;28;20203;-81
2023/07/03 10:06:32;;;;;;;5.63;1.67;;;;;24.30;100885.00;;;;5002466;28;20235;-82
2023/07/03 10:09:04;;;;;;;5.22;1.40;;;;;24.20;100884.00;;;;5003689;28;21769;-82
2023/07/03 10:11:39;;;;;;;8.18;1.77;;;;;24.10;100885.00;;;;5006025;28;20221;-80
2023/07/03 10:14:09;;;;;;;4.15;1.48;;;;;24.10;100897.00;;;;5004674;28;20197;-80
2023/07/03 10:16:38;;;;;;;2.78;1.20;;;;;24.00;100900.00;;;;4996979;28;20205;-80
2023/07/03 10:19:08;;;;;;;5.07;1.15;;;;;24.00;100899.00;;;;5008517;28;20201;-80
2023/07/03 10:21:38;;;;;;;5.25;1.70;;;;;23.90;100905.00;;;;5012174;28;20207;-80
2023/07/03 10:24:08;;;;;;;4.10;1.60;;;;;23.90;100912.00;;;;5003945;28;20213;-82
2023/07/03 10:26:40;;;;;;;4.45;1.33;;;;;23.80;100914.00;;;;5004106;28;20228;-81
2023/07/03 10:29:13;;;;;;;5.05;1.08;;;;;23.70;100912.00;;;;5004195;28;20197;-81
2023/07/03 10:31:46;;;;;;;6.32;1.50;;;;;23.70;100908.00;;;;5004635;28;20201;-81
2023/07/03 10:34:22;;;;;;;4.53;1.25;;;;;23.60;100905.00;;;;5006134;28;20249;-83
2023/07/03 10:36:55;;;;;;;5.70;1.50;;;;;23.60;100906.00;;;;5006255;28;20196;-81
2023/07/03 10:39:32;;;;;;;6.38;1.30;;;;;23.50;100905.00;;;;5008940;28;20662;-80
2023/07/03 10:42:04;;;;;;;6.32;1.60;;;;;23.50;100904.00;;;;5007043;28;20585;-83
2023/07/03 10:44:36;;;;;;;5.63;1.50;;;;;23.50;100909.00;;;;5008186;28;20197;-81
2023/07/03 10:47:13;;;;;;;4.95;1.42;;;;;23.40;100917.00;;;;5002042;28;20578;-81
2023/07/03 10:49:41;;;;;;;4.43;1.20;;;;;23.40;100911.00;;;;5006532;28;20204;-80
2023/07/03 10:52:17;;;;;;;5.90;1.35;;;;;23.30;100919.00;;;;5004434;28;20652;-81
2023/07/03 10:54:50;;;;;;;4.20;1.67;;;;;23.30;100918.00;;;;5008854;28;20208;-82
2023/07/03 10:57:23;;;;;;;5.97;1.55;;;;;23.20;100918.00;;;;5008775;28;20586;-82
2023/07/03 10:59:55;;;;;;;10.60;1.52;;;;;23.20;100919.00;;;;5004198;28;20288;-81
2023/07/03 11:02:34;;;;;;;8.00;1.73;;;;;23.10;100919.00;;;;5000479;28;20458;-83
2023/07/03 11:05:10;;;;;;;3.80;1.20;;;;;23.10;100908.00;;;;5006388;28;20693;-82
2023/07/03 11:07:47;;;;;;;4.47;1.27;;;;;23.20;100909.00;;;;5005895;28;20244;-83
2023/07/03 11:10:23;;;;;;;6.90;1.63;;;;;23.20;100909.00;;;;5003303;28;20224;-80
2023/07/03 11:12:58;;;;;;;3.15;1.38;;;;;23.20;100914.00;;;;5000211;28;20200;-81
2023/07/03 11:15:35;;;;;;;9.77;1.55;;;;;23.30;100919.00;;;;5004103;28;20201;-81
2023/07/03 11:18:16;;;;;;;3.72;0.98;;;;;23.30;100912.00;;;;5006653;28;20216;-81
2023/07/03 11:20:51;;;;;;;3.78;1.20;;;;;23.30;100911.00;;;;5006107;28;20207;-81
2023/07/03 11:23:25;;;;;;;4.50;1.27;;;;;23.40;100919.00;;;;5002281;28;20203;-81
2023/07/03 11:26:04;;;;;;;3.95;0.90;;;;;23.50;100912.00;;;;5005670;28;20201;-83
2023/07/03 11:28:35;;;;;;;5.07;1.52;;;;;23.50;100910.00;;;;5000969;28;20302;-82
2023/07/03 11:31:04;;;;;;;3.22;0.90;;;;;23.60;100919.00;;;;5006110;28;20197;-82
2023/07/03 11:33:34;;;;;;;2.83;0.98;;;;;23.60;100905.00;;;;5007287;28;20205;-82
2023/07/03 11:36:03;;;;;;;3.00;0.73;;;;;23.70;100907.00;;;;5000683;28;20208;-81
2023/07/03 11:38:30;;;;;;;1.85;0.73;;;;;23.80;100915.00;;;;5005973;28;20208;-81
2023/07/03 11:41:10;;;;;;;3.50;0.82;;;;;23.80;100912.00;;;;5009678;28;20207;-81
2023/07/03 11:43:43;;;;;;;2.38;0.70;;;;;23.90;100911.00;;;;5003666;28;20296;-81
2023/07/03 11:46:18;;;;;;;2.90;0.77;;;;;23.90;100898.00;;;;5003067;28;20571;-81
2023/07/03 11:48:49;;;;;;;4.90;0.90;;;;;24.00;100908.00;;;;5002508;28;20251;-80
2023/07/03 11:51:31;;;;;;;4.63;0.90;;;;;23.90;100909.00;;;;5005142;28;20663;-80
2023/07/03 11:53:59;;;;;;;2.97;1.17;;;;;24.00;100913.00;;;;5001769;28;20610;-81
2023/07/03 11:56:49;;;;;;;2.10;0.73;;;;;23.80;100913.00;;;;5011468;28;20219;-81
2023/07/03 11:59:30;;;;;;;4.53;1.48;;;;;23.90;100913.00;;;;5005690;28;20193;-82
2023/07/03 12:02:45;;;;;;;3.95;0.68;;;;;23.80;100904.00;;;;5008419;28;20197;-81
2023/07/03 12:05:28;;;;;;;4.32;1.55;;;;;23.90;100910.00;;;;5007651;28;20674;-82
2023/07/03 12:07:57;;;;;;;2.45;1.00;;;;;24.00;100906.00;;;;5009204;28;20236;-81
2023/07/03 12:10:58;;;;;;;4.93;1.02;;;;;23.90;100909.00;;;;5008651;28;20225;-82
2023/07/03 12:13:34;;;;;;;2.70;0.80;;;;;24.10;100911.00;;;;5006828;28;20204;-81
2023/07/03 12:16:04;;;;;;;2.03;0.80;;;;;24.20;100887.00;;;;5008799;28;20659;-81
2023/07/03 12:18:34;;;;;;;4.28;0.90;;;;;24.30;100895.00;;;;5011187;28;20211;-79